Time;durP1;ratioP1;P1;durP2;ratioP2;P2;SDS_P1;SDS_P2;PMS_P1;PMS_P2;Temp;Humidity;BMP_temperature;BMP_pressure;BME280_temperature;BME280_humidity;BME280_pressure;Samples;Min_cycle;Max_cycle;Signal;HPM_P1;HPM_P2
2022/07/30 00:02:16;;;;;;;3.88;3.20;;;17.90;60.10;;;;;;5019487;28;20229;-62
2022/07/30 00:04:43;;;;;;;9.70;2.95;;;18.10;59.40;;;;;;5035102;28;20208;-63
2022/07/30 00:07:10;;;;;;;6.75;3.63;;;17.90;57.50;;;;;;5005675;28;20239;-62
2022/07/30 00:09:38;;;;;;;5.85;3.60;;;17.90;52.80;;;;;;5029970;28;20212;-62
2022/07/30 00:12:05;;;;;;;6.55;3.40;;;18.00;50.70;;;;;;5016719;28;20256;-62
2022/07/30 00:14:33;;;;;;;10.50;3.67;;;18.00;45.30;;;;;;5031520;28;20202;-62
2022/07/30 00:17:00;;;;;;;9.18;3.38;;;17.80;44.40;;;;;;5016075;28;20231;-63
2022/07/30 00:19:27;;;;;;;4.45;3.42;;;18.00;43.00;;;;;;5022557;28;20236;-62
2022/07/30 00:21:54;;;;;;;5.88;3.28;;;17.90;45.10;;;;;;5003860;28;20201;-62
2022/07/30 00:24:21;;;;;;;13.55;3.20;;;17.90;47.50;;;;;;5027833;28;20198;-63
2022/07/30 00:26:50;;;;;;;5.35;3.35;;;17.90;49.20;;;;;;5029902;28;20198;-62
2022/07/30 00:29:17;;;;;;;6.90;3.35;;;17.80;52.10;;;;;;5016043;28;20202;-62
2022/07/30 00:31:44;;;;;;;8.55;3.58;;;;;;;;;;5020230;28;20212;-62
2022/07/30 00:34:11;;;;;;;6.45;3.40;;;17.60;51.50;;;;;;5016506;28;20212;-62
2022/07/30 00:36:38;;;;;;;4.70;3.03;;;17.80;49.90;;;;;;5007424;28;20574;-62
2022/07/30 00:39:05;;;;;;;7.72;2.90;;;17.70;54.20;;;;;;5020590;28;20204;-63
2022/07/30 00:41:32;;;;;;;4.47;3.55;;;17.70;56.80;;;;;;5028779;28;20197;-62
2022/07/30 00:44:00;;;;;;;5.65;3.20;;;17.60;60.50;;;;;;5019613;28;20737;-62
2022/07/30 00:46:27;;;;;;;11.52;3.65;;;17.60;66.40;;;;;;5019249;28;20209;-63
2022/07/30 00:48:53;;;;;;;4.28;3.75;;;17.50;67.50;;;;;;5017171;28;20201;-62
2022/07/30 00:51:20;;;;;;;7.38;3.28;;;17.60;68.70;;;;;;5029745;28;20198;-63
2022/07/30 00:53:47;;;;;;;7.10;3.40;;;17.50;70.00;;;;;;5006264;28;21111;-62
2022/07/30 00:56:14;;;;;;;5.03;3.88;;;17.40;74.90;;;;;;5019274;28;20217;-63
2022/07/30 00:58:40;;;;;;;5.28;3.65;;;17.50;85.80;;;;;;5034346;28;20201;-62
2022/07/30 01:01:08;;;;;;;5.82;3.90;;;17.10;88.50;;;;;;5008761;28;20201;-63
2022/07/30 01:03:37;;;;;;;8.65;4.03;;;17.30;84.70;;;;;;5027655;28;20232;-62
2022/07/30 01:06:04;;;;;;;6.00;4.18;;;17.20;87.10;;;;;;5016939;28;20205;-62
2022/07/30 01:08:31;;;;;;;4.80;3.58;;;17.20;90.10;;;;;;5000731;28;20209;-63
2022/07/30 01:10:58;;;;;;;7.85;3.45;;;17.20;91.30;;;;;;5025250;28;20221;-62
2022/07/30 01:13:24;;;;;;;5.70;3.97;;;17.30;90.20;;;;;;5029386;28;20201;-63
2022/07/30 01:15:51;;;;;;;6.53;3.80;;;17.00;91.00;;;;;;5016827;28;20217;-62
2022/07/30 01:18:20;;;;;;;8.63;3.75;;;17.20;90.20;;;;;;5013741;28;20216;-62
2022/07/30 01:20:55;;;;;;;4.28;3.25;;;17.20;91.70;;;;;;5014379;28;20726;-63
2022/07/30 01:23:27;;;;;;;4.47;3.47;;;17.30;92.50;;;;;;5002548;28;20255;-62
2022/07/30 01:26:00;;;;;;;6.50;4.07;;;17.30;92.60;;;;;;5026813;28;20248;-63
2022/07/30 01:28:30;;;;;;;7.32;3.83;;;17.20;91.50;;;;;;5028971;28;21127;-63
2022/07/30 01:30:58;;;;;;;5.05;3.30;;;17.20;90.50;;;;;;5015065;28;20201;-62
2022/07/30 01:33:26;;;;;;;4.22;3.35;;;17.20;91.40;;;;;;5020739;28;20205;-62
2022/07/30 01:35:55;;;;;;;7.57;3.50;;;17.00;90.20;;;;;;5016681;28;20259;-62
2022/07/30 01:38:24;;;;;;;9.30;4.50;;;16.90;93.60;;;;;;5016544;28;20212;-63
2022/07/30 01:40:52;;;;;;;4.65;4.03;;;16.90;92.00;;;;;;5021650;28;20209;-63
2022/07/30 01:43:23;;;;;;;9.93;3.97;;;16.90;91.10;;;;;;5026717;28;20713;-63
2022/07/30 01:45:51;;;;;;;8.60;3.90;;;16.90;91.30;;;;;;5015548;28;20220;-63
2022/07/30 01:48:21;;;;;;;6.03;3.80;;;16.90;90.90;;;;;;5022969;28;20209;-63
2022/07/30 01:50:53;;;;;;;4.53;3.45;;;16.80;90.50;;;;;;5007031;28;20611;-62
2022/07/30 01:53:24;;;;;;;5.15;3.78;;;16.80;90.70;;;;;;5020777;28;20201;-63
2022/07/30 01:55:52;;;;;;;5.65;3.22;;;16.70;90.90;;;;;;4999953;28;20755;-63
2022/07/30 01:58:23;;;;;;;4.15;3.75;;;16.70;93.40;;;;;;5016556;28;20206;-62
2022/07/30 02:00:51;;;;;;;15.38;4.15;;;16.70;92.20;;;;;;5028664;28;20804;-63
2022/07/30 02:03:17;;;;;;;7.78;4.35;;;16.80;93.00;;;;;;5011848;28;20607;-62
2022/07/30 02:05:50;;;;;;;6.15;4.20;;;16.50;95.70;;;;;;5031535;28;20202;-62
2022/07/30 02:08:24;;;;;;;7.13;3.97;;;16.80;95.10;;;;;;5010069;28;20212;-62
2022/07/30 02:10:54;;;;;;;4.50;4.07;;;16.90;96.10;;;;;;4998055;28;20205;-63
2022/07/30 02:13:26;;;;;;;7.85;4.55;;;16.90;95.30;;;;;;5020858;28;20205;-63
2022/07/30 02:15:58;;;;;;;5.78;3.95;;;16.50;95.50;;;;;;5031953;28;20198;-63
2022/07/30 02:18:43;;;;;;;9.27;4.80;;;17.00;96.40;;;;;;5021398;28;20248;-62
2022/07/30 02:21:12;;;;;;;6.38;4.68;;;16.90;96.50;;;;;;5028078;28;20205;-62
2022/07/30 02:23:42;;;;;;;5.10;4.10;;;16.90;95.70;;;;;;5012371;28;20232;-62
2022/07/30 02:26:10;;;;;;;7.03;4.20;;;16.90;96.30;;;;;;5006080;28;20210;-63
2022/07/30 02:28:41;;;;;;;6.43;4.25;;;16.80;95.10;;;;;;5033086;28;20204;-62
2022/07/30 02:31:11;;;;;;;6.85;4.30;;;16.80;95.70;;;;;;5028549;28;20202;-62
2022/07/30 02:33:41;;;;;;;7.22;4.07;;;16.70;94.70;;;;;;5021989;28;20208;-62
2022/07/30 02:36:09;;;;;;;7.75;3.85;;;16.50;94.00;;;;;;5023453;28;20233;-62
2022/07/30 02:38:37;;;;;;;4.13;3.28;;;16.40;94.40;;;;;;5019875;28;20667;-63
2022/07/30 02:41:07;;;;;;;4.50;4.10;;;16.40;94.20;;;;;;4995844;28;20722;-63
2022/07/30 02:43:35;;;;;;;5.93;4.22;;;16.10;96.00;;;;;;5032210;28;20252;-62
2022/07/30 02:46:05;;;;;;;6.57;4.30;;;15.00;94.40;;;;;;5022936;28;21164;-62
2022/07/30 02:48:33;;;;;;;7.15;4.10;;;16.40;95.90;;;;;;5022457;28;20210;-62
2022/07/30 02:51:02;;;;;;;5.28;3.97;;;16.30;94.90;;;;;;5027047;28;20240;-62
2022/07/30 02:53:30;;;;;;;10.05;5.05;;;16.30;95.60;;;;;;5019949;28;20691;-62
2022/07/30 02:55:59;;;;;;;4.63;4.22;;;16.30;94.40;;;;;;5012639;28;20202;-62
2022/07/30 02:58:28;;;;;;;6.57;4.10;;;16.20;94.00;;;;;;5008662;28;20206;-63
2022/07/30 03:00:56;;;;;;;6.03;4.80;;;16.20;94.30;;;;;;5028510;28;20209;-63
2022/07/30 03:03:28;;;;;;;8.52;4.70;;;16.10;94.10;;;;;;5033465;28;20232;-63
2022/07/30 03:05:55;;;;;;;8.02;4.60;;;16.10;93.70;;;;;;5019365;28;20663;-63
2022/07/30 03:08:22;;;;;;;4.57;4.18;;;16.10;94.00;;;;;;5019667;28;20205;-63
2022/07/30 03:10:49;;;;;;;7.57;4.47;;;15.90;95.80;;;;;;5016932;28;20674;-62
2022/07/30 03:13:17;;;;;;;8.75;4.68;;;16.00;94.30;;;;;;5007553;28;20267;-63
2022/07/30 03:15:47;;;;;;;6.28;4.72;;;16.00;94.40;;;;;;5027113;28;20751;-62
2022/07/30 03:18:17;;;;;;;5.55;4.45;;;16.10;94.80;;;;;;5029548;28;20236;-63
2022/07/30 03:20:50;;;;;;;7.35;4.63;;;16.00;94.50;;;;;;5017938;28;20222;-62
2022/07/30 03:23:19;;;;;;;7.70;4.80;;;16.10;95.20;;;;;;5020484;28;20229;-63
2022/07/30 03:25:50;;;;;;;8.15;4.20;;;16.10;94.80;;;;;;5029207;28;20951;-63
2022/07/30 03:28:19;;;;;;;6.90;5.05;;;16.20;96.50;;;;;;4998848;28;20695;-62
2022/07/30 03:30:46;;;;;;;7.00;4.93;;;16.10;95.40;;;;;;5023335;28;20209;-62
2022/07/30 03:33:14;;;;;;;10.48;4.63;;;16.00;96.10;;;;;;5032927;28;20205;-62
2022/07/30 03:35:42;;;;;;;5.28;4.75;;;16.10;95.00;;;;;;5021649;28;20201;-62
2022/07/30 03:38:13;;;;;;;6.88;4.20;;;16.00;94.80;;;;;;5015845;28;20210;-62
2022/07/30 03:40:41;;;;;;;6.32;4.43;;;16.00;94.70;;;;;;5032364;28;20198;-62
2022/07/30 03:43:09;;;;;;;5.97;4.70;;;16.10;94.80;;;;;;5011683;28;20776;-62
2022/07/30 03:45:37;;;;;;;5.65;4.82;;;16.20;96.10;;;;;;5006124;28;20225;-62
2022/07/30 03:48:06;;;;;;;7.75;4.68;;;16.00;94.90;;;;;;5021149;28;20199;-63
2022/07/30 03:50:35;;;;;;;7.93;5.03;;;15.90;94.70;;;;;;5031229;28;20213;-62
2022/07/30 03:53:03;;;;;;;5.05;4.13;;;15.80;96.00;;;;;;5022776;28;20205;-62
2022/07/30 03:55:32;;;;;;;5.18;4.60;;;15.80;95.30;;;;;;5021639;28;20300;-63
2022/07/30 03:58:00;;;;;;;5.93;4.45;;;15.80;93.80;;;;;;5017848;28;20201;-62
2022/07/30 04:00:27;;;;;;;5.80;5.07;;;15.80;94.30;;;;;;5006279;28;20232;-63
2022/07/30 04:02:55;;;;;;;4.90;4.40;;;;;;;;;;5016034;28;20205;-63
2022/07/30 04:05:22;;;;;;;7.22;4.65;;;15.80;94.40;;;;;;5019594;28;20213;-62
2022/07/30 04:07:49;;;;;;;5.45;4.22;;;15.70;96.10;;;;;;5019546;28;20578;-63
2022/07/30 04:10:16;;;;;;;5.57;4.45;;;15.80;94.60;;;;;;5024747;28;20225;-63
2022/07/30 04:12:44;;;;;;;7.40;4.63;;;15.80;94.80;;;;;;5024288;28;20208;-63
2022/07/30 04:15:12;;;;;;;5.40;4.32;;;;;;;;;;5003941;28;20702;-63
2022/07/30 04:17:43;;;;;;;5.05;4.05;;;15.70;94.40;;;;;;5031024;28;20543;-62
2022/07/30 04:20:16;;;;;;;4.22;3.70;;;15.80;97.90;;;;;;5021449;28;20209;-63
2022/07/30 04:22:44;;;;;;;3.63;3.20;;;15.70;96.50;;;;;;5016783;28;20212;-62
2022/07/30 04:25:11;;;;;;;5.20;3.03;;;15.80;99.70;;;;;;5022430;28;20225;-63
2022/07/30 04:27:39;;;;;;;3.00;2.70;;;15.70;98.00;;;;;;5021941;28;20884;-62
2022/07/30 04:30:08;;;;;;;3.72;2.70;;;15.70;99.40;;;;;;5029214;28;20259;-62
2022/07/30 04:32:36;;;;;;;2.60;2.40;;;15.70;98.20;;;;;;5007991;28;21256;-63
2022/07/30 04:35:03;;;;;;;6.43;3.58;;;15.80;98.80;;;;;;5023632;28;20232;-63
2022/07/30 04:37:29;;;;;;;3.78;2.95;;;15.70;99.90;;;;;;5014135;28;20206;-64
2022/07/30 04:39:57;;;;;;;3.97;3.28;;;;;;;;;;5029870;28;20201;-63
2022/07/30 04:42:25;;;;;;;3.42;3.13;;;15.80;99.90;;;;;;5007842;28;20213;-62
2022/07/30 04:44:52;;;;;;;5.00;3.95;;;15.90;99.80;;;;;;5028637;28;20225;-62
2022/07/30 04:47:20;;;;;;;4.28;3.83;;;15.90;99.90;;;;;;5004411;28;20206;-62
2022/07/30 04:49:48;;;;;;;5.97;4.43;;;15.90;99.90;;;;;;5019610;28;20790;-63
2022/07/30 04:52:16;;;;;;;5.25;4.43;;;16.00;99.90;;;;;;5019362;28;20568;-62
2022/07/30 04:54:46;;;;;;;10.60;5.15;;;16.10;99.90;;;;;;5029117;28;20194;-62
2022/07/30 04:57:15;;;;;;;6.95;5.65;;;16.20;99.90;;;;;;5019429;28;20210;-63
2022/07/30 04:59:42;;;;;;;10.77;6.00;;;16.40;99.90;;;;;;5018054;28;20206;-63
2022/07/30 05:02:10;;;;;;;6.78;5.65;;;16.30;99.90;;;;;;5006579;28;20212;-63
2022/07/30 05:04:40;;;;;;;7.72;6.05;;;15.70;99.90;;;;;;5019847;28;20293;-63
2022/07/30 05:07:08;;;;;;;9.43;6.70;;;16.40;99.90;;;;;;5029935;28;20201;-63
2022/07/30 05:09:36;;;;;;;8.02;6.32;;;16.40;99.90;;;;;;5018520;28;20232;-62
2022/07/30 05:12:02;;;;;;;8.43;7.05;;;16.40;99.90;;;;;;5021932;28;20209;-63
2022/07/30 05:14:29;;;;;;;11.02;6.55;;;16.60;99.90;;;;;;5019858;28;20221;-63
2022/07/30 05:16:56;;;;;;;8.68;6.70;;;16.70;99.90;;;;;;5008273;28;20694;-63
2022/07/30 05:19:23;;;;;;;9.35;6.78;;;16.70;99.90;;;;;;5022646;28;20225;-63
2022/07/30 05:21:52;;;;;;;10.27;6.80;;;16.80;99.90;;;;;;5022530;28;20202;-63
2022/07/30 05:24:18;;;;;;;8.45;6.07;;;17.00;99.90;;;;;;5022990;28;20236;-63
2022/07/30 05:26:45;;;;;;;9.48;6.70;;;16.80;99.90;;;;;;5024000;28;20197;-63
2022/07/30 05:29:12;;;;;;;9.00;7.03;;;17.00;99.90;;;;;;5025554;28;20214;-63
2022/07/30 05:31:39;;;;;;;9.63;7.45;;;17.00;99.90;;;;;;5028947;28;20194;-62
2022/07/30 05:34:06;;;;;;;10.95;7.25;;;17.10;99.90;;;;;;5008190;28;20209;-63
2022/07/30 05:36:33;;;;;;;8.68;7.30;;;17.20;99.90;;;;;;5020665;28;20201;-62
2022/07/30 05:39:01;;;;;;;10.75;7.50;;;17.20;99.90;;;;;;5028574;28;20197;-63
2022/07/30 05:41:28;;;;;;;11.63;7.32;;;17.20;99.90;;;;;;5029687;28;20213;-63
2022/07/30 05:43:55;;;;;;;9.60;7.50;;;17.30;99.90;;;;;;5020494;28;20221;-63
2022/07/30 05:46:23;;;;;;;11.10;7.40;;;17.30;99.90;;;;;;5034038;28;20529;-63
2022/07/30 05:48:49;;;;;;;15.90;7.35;;;17.40;99.90;;;;;;5010465;28;20216;-63
2022/07/30 05:51:18;;;;;;;9.45;7.07;;;17.40;99.90;;;;;;5034084;28;20210;-63
2022/07/30 05:53:45;;;;;;;9.27;7.30;;;17.50;99.90;;;;;;5023410;28;20202;-63
2022/07/30 05:56:13;;;;;;;8.15;6.80;;;17.60;99.90;;;;;;5021394;28;20204;-63
2022/07/30 05:58:40;;;;;;;7.70;6.70;;;17.70;99.90;;;;;;5025019;28;20209;-62
2022/07/30 06:01:07;;;;;;;11.18;7.38;;;17.70;99.90;;;;;;5014775;28;20201;-62
2022/07/30 06:03:34;;;;;;;11.45;7.53;;;;;;;;;;5003404;28;20206;-63
2022/07/30 06:06:02;;;;;;;8.52;6.70;;;17.90;99.90;;;;;;5011883;28;21303;-63
2022/07/30 06:08:29;;;;;;;11.20;6.85;;;17.90;99.90;;;;;;5023202;28;22286;-63
2022/07/30 06:10:56;;;;;;;11.13;7.03;;;18.00;99.90;;;;;;5016192;28;20197;-63
2022/07/30 06:13:24;;;;;;;10.35;6.85;;;18.00;99.90;;;;;;5027729;28;20229;-62
2022/07/30 06:15:51;;;;;;;8.27;6.97;;;17.90;99.90;;;;;;5017638;28;20221;-63
2022/07/30 06:18:18;;;;;;;7.50;6.30;;;18.10;99.90;;;;;;5034064;28;20752;-63
2022/07/30 06:20:45;;;;;;;16.40;6.82;;;;;;;;;;5005212;28;20697;-62
2022/07/30 06:23:12;;;;;;;7.22;6.53;;;18.30;99.90;;;;;;5012072;28;20208;-63
2022/07/30 06:25:39;;;;;;;9.70;7.93;;;18.30;99.90;;;;;;5021533;28;20573;-62
2022/07/30 06:28:06;;;;;;;12.60;7.25;;;18.20;99.90;;;;;;5021787;28;20201;-63
2022/07/30 06:30:34;;;;;;;12.32;7.43;;;18.20;99.90;;;;;;5021292;28;20216;-62
2022/07/30 06:33:01;;;;;;;9.85;6.95;;;;;;;;;;5030394;28;20198;-62
2022/07/30 06:35:28;;;;;;;8.30;6.70;;;18.40;99.90;;;;;;5006173;28;20210;-63
2022/07/30 06:37:54;;;;;;;7.78;6.75;;;18.40;99.90;;;;;;5017582;28;20198;-63
2022/07/30 06:40:21;;;;;;;9.77;6.15;;;18.40;99.90;;;;;;5010375;28;20201;-63
2022/07/30 06:42:48;;;;;;;12.38;7.07;;;18.30;99.90;;;;;;5022270;28;20324;-63
2022/07/30 06:45:15;;;;;;;10.02;7.35;;;18.60;99.90;;;;;;5005512;28;21275;-63
2022/07/30 06:47:43;;;;;;;10.27;6.97;;;18.60;99.90;;;;;;5029821;28;20220;-63
2022/07/30 06:50:10;;;;;;;11.23;6.75;;;18.60;99.90;;;;;;5001254;28;20597;-63
2022/07/30 06:52:37;;;;;;;9.23;6.90;;;18.70;99.90;;;;;;5030251;28;20202;-62
2022/07/30 06:55:04;;;;;;;10.10;6.43;;;18.70;99.90;;;;;;5004346;28;20236;-63
2022/07/30 06:57:31;;;;;;;9.02;5.88;;;18.60;99.90;;;;;;5015543;28;20240;-63
2022/07/30 06:59:58;;;;;;;12.55;6.35;;;18.60;99.90;;;;;;5015102;28;20303;-63
2022/07/30 07:02:25;;;;;;;8.50;6.82;;;18.60;99.90;;;;;;5004766;28;20942;-63
2022/07/30 07:04:53;;;;;;;11.48;6.88;;;17.80;99.90;;;;;;4991100;28;20233;-63
2022/07/30 07:07:20;;;;;;;8.98;6.38;;;18.60;99.90;;;;;;5028856;28;20208;-63
2022/07/30 07:09:47;;;;;;;9.95;5.78;;;18.50;99.90;;;;;;5009714;28;20221;-63
2022/07/30 07:12:14;;;;;;;12.88;6.18;;;18.50;99.90;;;;;;5016888;28;20205;-63
2022/07/30 07:14:41;;;;;;;8.07;6.15;;;18.60;99.90;;;;;;5026817;28;20730;-63
2022/07/30 07:17:08;;;;;;;8.27;6.75;;;18.70;99.90;;;;;;5011797;28;20212;-63
2022/07/30 07:19:35;;;;;;;11.40;7.22;;;18.80;99.90;;;;;;5023616;28;20710;-63
2022/07/30 07:22:03;;;;;;;14.65;6.63;;;18.70;99.90;;;;;;5000270;28;20210;-63
2022/07/30 07:24:30;;;;;;;9.20;6.50;;;18.70;99.90;;;;;;5031102;28;20225;-63
2022/07/30 07:26:57;;;;;;;11.02;6.18;;;18.80;99.90;;;;;;4984767;28;20216;-63
2022/07/30 07:29:24;;;;;;;9.23;6.25;;;18.80;99.90;;;;;;5027994;28;20247;-63
2022/07/30 07:31:51;;;;;;;9.35;6.05;;;18.90;99.90;;;;;;5014906;28;20667;-63
2022/07/30 07:34:17;;;;;;;12.20;7.07;;;18.90;99.60;;;;;;5030687;28;20205;-63
2022/07/30 07:36:45;;;;;;;10.35;6.20;;;;;;;;;;5001513;28;20209;-63
2022/07/30 07:39:13;;;;;;;10.27;6.03;;;19.00;98.00;;;;;;5028709;28;20209;-63
2022/07/30 07:41:39;;;;;;;9.38;6.57;;;19.00;97.80;;;;;;5003685;28;21242;-63
2022/07/30 07:44:06;;;;;;;8.93;5.70;;;19.00;98.40;;;;;;5032824;28;20205;-63
2022/07/30 07:46:33;;;;;;;10.07;6.28;;;19.20;98.00;;;;;;5018095;28;20696;-63
2022/07/30 07:49:00;;;;;;;8.95;6.45;;;18.00;97.50;;;;;;5008313;28;20221;-63
2022/07/30 07:51:27;;;;;;;13.23;6.00;;;;;;;;;;5008174;28;20225;-63
2022/07/30 07:53:54;;;;;;;7.50;6.15;;;19.20;96.40;;;;;;4993842;28;20221;-65
2022/07/30 07:56:23;;;;;;;10.32;5.85;;;19.30;95.40;;;;;;5003741;28;20370;-64
2022/07/30 07:58:52;;;;;;;7.10;5.93;;;18.10;94.80;;;;;;4994075;28;21170;-64
2022/07/30 08:01:19;;;;;;;8.73;5.70;;;19.30;94.30;;;;;;5019437;28;20202;-64
2022/07/30 08:03:46;;;;;;;9.20;6.10;;;19.20;94.20;;;;;;5009086;28;20205;-64
2022/07/30 08:06:13;;;;;;;9.88;6.13;;;19.40;93.70;;;;;;5030939;28;20706;-63
2022/07/30 08:08:40;;;;;;;7.82;5.60;;;19.30;95.00;;;;;;4999295;28;20963;-63
2022/07/30 08:11:07;;;;;;;7.68;5.50;;;19.50;92.40;;;;;;5022864;28;20434;-62
2022/07/30 08:13:35;;;;;;;10.52;6.15;;;19.50;91.30;;;;;;5000311;28;20209;-63
2022/07/30 08:16:02;;;;;;;6.75;5.95;;;19.50;92.20;;;;;;5018222;28;20225;-63
2022/07/30 08:18:29;;;;;;;8.88;5.72;;;19.50;91.50;;;;;;5005683;28;20279;-63
2022/07/30 08:20:56;;;;;;;12.77;6.38;;;19.50;85.30;;;;;;5014483;28;20217;-63
2022/07/30 08:23:23;;;;;;;10.07;6.25;;;19.60;86.30;;;;;;5021925;28;20201;-63
2022/07/30 08:25:50;;;;;;;15.45;6.32;;;19.40;85.70;;;;;;4996085;28;20225;-63
2022/07/30 08:28:17;;;;;;;10.45;5.95;;;19.60;87.90;;;;;;5001793;28;20212;-64
2022/07/30 08:30:46;;;;;;;6.97;5.78;;;19.60;86.70;;;;;;5022796;28;20197;-64
2022/07/30 08:33:13;;;;;;;7.22;6.07;;;;;;;;;;5010766;28;20221;-63
2022/07/30 08:35:40;;;;;;;14.38;5.65;;;18.10;85.60;;;;;;4999541;28;21206;-63
2022/07/30 08:38:06;;;;;;;11.32;5.90;;;19.70;87.40;;;;;;5029935;28;20220;-63
2022/07/30 08:40:35;;;;;;;8.15;6.30;;;19.80;86.60;;;;;;4989645;28;20216;-63
2022/07/30 08:43:04;;;;;;;8.90;5.70;;;19.80;79.40;;;;;;5014805;28;20438;-63
2022/07/30 08:45:32;;;;;;;10.80;6.30;;;21.50;84.00;;;;;;5003771;28;20229;-63
2022/07/30 08:48:01;;;;;;;9.65;6.70;;;19.90;82.30;;;;;;5016381;28;20221;-63
2022/07/30 08:50:28;;;;;;;7.78;6.25;;;20.10;81.20;;;;;;5011609;28;20600;-63
2022/07/30 08:52:56;;;;;;;12.35;5.10;;;20.20;83.30;;;;;;5007242;28;20210;-63
2022/07/30 08:55:23;;;;;;;8.98;5.78;;;20.30;83.90;;;;;;4986275;28;20334;-64
2022/07/30 08:57:50;;;;;;;13.52;6.75;;;20.30;80.60;;;;;;5013430;28;20202;-62
2022/07/30 09:00:17;;;;;;;10.32;5.72;;;20.30;69.90;;;;;;5003565;28;20615;-64
2022/07/30 09:02:44;;;;;;;7.90;5.75;;;20.20;71.40;;;;;;5021101;28;20193;-64
2022/07/30 09:05:13;;;;;;;6.55;5.78;;;20.40;77.40;;;;;;5013301;28;20233;-63
2022/07/30 09:07:40;;;;;;;11.02;5.93;;;20.50;74.80;;;;;;4994698;28;20217;-64
2022/07/30 09:10:09;;;;;;;8.45;5.10;;;20.60;71.30;;;;;;5016778;28;20256;-63
2022/07/30 09:12:38;;;;;;;6.97;4.75;;;20.40;58.40;;;;;;4979183;28;20224;-64
2022/07/30 09:15:07;;;;;;;7.47;5.00;;;20.50;59.20;;;;;;5011238;28;20211;-63
2022/07/30 09:17:53;;;;;;;8.27;4.32;;;20.60;59.50;;;;;;5011180;28;20587;-64
2022/07/30 09:20:24;;;;;;;7.60;4.63;;;20.60;58.90;;;;;;5019743;28;20239;-63
2022/07/30 09:22:54;;;;;;;9.43;4.05;;;20.70;55.00;;;;;;5016991;28;20198;-63
2022/07/30 09:25:36;;;;;;;6.43;3.53;;;20.90;52.50;;;;;;5018180;28;23725;-64
2022/07/30 09:28:03;;;;;;;3.35;2.67;;;20.90;36.10;;;;;;4997141;28;20354;-63
2022/07/30 09:30:44;;;;;;;9.35;3.38;;;21.00;26.00;;;;;;5009679;28;20225;-64
2022/07/30 09:33:11;;;;;;;6.63;3.75;;;21.00;25.60;;;;;;5020193;28;20720;-63
2022/07/30 09:35:40;;;;;;;6.72;4.15;;;21.20;29.80;;;;;;5022572;28;20255;-64
2022/07/30 09:38:08;;;;;;;10.95;3.67;;;21.30;30.20;;;;;;4998308;28;20284;-64
2022/07/30 09:40:35;;;;;;;4.82;3.17;;;21.40;29.40;;;;;;5017246;28;20363;-63
2022/07/30 09:43:04;;;;;;;6.68;3.53;;;23.50;9.80;;;;;;4993123;28;20432;-63
2022/07/30 09:45:31;;;;;;;3.45;3.13;;;21.50;1.00;;;;;;5019125;28;20249;-64
2022/07/30 09:47:58;;;;;;;5.18;3.65;;;21.70;4.60;;;;;;5000396;28;20247;-64
2022/07/30 09:50:26;;;;;;;4.88;3.22;;;20.40;1.00;;;;;;5012309;28;20229;-64
2022/07/30 09:52:54;;;;;;;5.60;3.10;;;21.80;1.00;;;;;;5021028;28;20709;-64
2022/07/30 09:55:32;;;;;;;7.30;3.20;;;21.70;1.00;;;;;;5011412;28;20228;-63
2022/07/30 09:58:00;;;;;;;4.40;3.13;;;21.60;1.00;;;;;;5023685;28;20221;-65
2022/07/30 10:00:29;;;;;;;14.90;3.45;;;21.90;1.00;;;;;;4977555;28;20217;-65
2022/07/30 10:02:56;;;;;;;14.13;2.60;;;21.90;1.00;;;;;;5012527;28;20773;-64
2022/07/30 10:05:24;;;;;;;6.72;2.67;;;21.90;1.00;;;;;;5008768;28;20344;-64
2022/07/30 10:07:53;;;;;;;5.88;2.30;;;21.80;99.90;;;;;;5020141;28;20221;-63
2022/07/30 10:10:24;;;;;;;4.78;2.40;;;22.00;1.00;;;;;;5008543;28;20851;-64
2022/07/30 10:12:53;;;;;;;3.58;2.45;;;22.10;99.90;;;;;;5023997;28;20233;-63
2022/07/30 10:15:21;;;;;;;2.53;2.25;;;22.40;1.00;;;;;;4996674;28;20745;-63
2022/07/30 10:17:48;;;;;;;4.30;2.30;;;22.30;1.00;;;;;;5006593;28;20222;-63
2022/07/30 10:20:16;;;;;;;4.05;2.38;;;22.30;1.00;;;;;;5020563;28;20251;-63
2022/07/30 10:22:44;;;;;;;2.80;2.03;;;22.30;99.90;;;;;;5011999;28;20232;-63
2022/07/30 10:25:11;;;;;;;3.95;3.17;;;22.40;1.00;;;;;;5013340;28;20221;-63
2022/07/30 10:27:40;;;;;;;7.00;2.80;;;22.40;99.90;;;;;;5024527;28;20221;-64
2022/07/30 10:30:08;;;;;;;3.75;2.40;;;22.40;99.90;;;;;;4995998;28;20245;-64
2022/07/30 10:32:37;;;;;;;6.20;2.25;;;22.40;99.90;;;;;;5026735;28;20201;-63
2022/07/30 10:35:04;;;;;;;5.72;2.50;;;22.50;1.00;;;;;;5009314;28;20212;-62
2022/07/30 10:37:33;;;;;;;4.07;2.30;;;22.80;1.00;;;;;;5008839;28;20630;-63
2022/07/30 10:40:07;;;;;;;4.95;2.10;;;22.70;1.00;;;;;;5016308;28;20975;-63
2022/07/30 10:42:59;;;;;;;4.10;2.10;;;22.60;1.00;;;;;;5022151;28;20736;-63
2022/07/30 10:45:34;;;;;;;2.80;2.25;;;22.80;99.90;;;;;;4993247;28;20213;-63
2022/07/30 10:48:03;;;;;;;5.85;2.65;;;22.80;99.90;;;;;;5024066;28;20197;-63
2022/07/30 10:50:30;;;;;;;3.58;2.00;;;22.80;1.00;;;;;;5012333;28;20209;-63
2022/07/30 10:52:59;;;;;;;10.50;2.33;;;22.70;1.00;;;;;;5020120;28;20205;-63
2022/07/30 10:55:29;;;;;;;3.05;2.38;;;22.80;1.00;;;;;;5011731;28;23405;-64
2022/07/30 10:58:00;;;;;;;4.07;2.03;;;22.80;1.00;;;;;;5019119;28;20201;-62
2022/07/30 11:00:30;;;;;;;3.13;2.72;;;22.70;1.00;;;;;;4984406;28;20218;-63
2022/07/30 11:03:15;;;;;;;3.58;2.25;;;22.90;1.00;;;;;;5027613;28;20226;-64
2022/07/30 11:05:43;;;;;;;3.83;2.13;;;;;;;;;;5014570;28;20221;-64
2022/07/30 11:08:29;;;;;;;3.47;2.40;;;23.20;1.00;;;;;;5022018;28;20218;-63
2022/07/30 11:10:56;;;;;;;5.18;2.53;;;23.20;99.90;;;;;;5010891;28;23956;-63
2022/07/30 11:13:51;;;;;;;6.03;2.40;;;23.30;1.00;;;;;;5014448;28;20261;-63
2022/07/30 11:16:20;;;;;;;3.65;2.40;;;23.20;1.00;;;;;;4991322;28;21138;-63
2022/07/30 11:19:05;;;;;;;3.47;2.20;;;23.00;1.00;;;;;;5028139;28;20231;-63
2022/07/30 11:21:33;;;;;;;3.47;2.08;;;23.20;1.00;;;;;;4995099;28;20225;-62
2022/07/30 11:24:00;;;;;;;4.18;2.38;;;23.30;1.00;;;;;;5022027;28;20198;-63
2022/07/30 11:26:51;;;;;;;2.13;1.85;;;23.40;99.90;;;;;;5008815;28;20233;-64
2022/07/30 11:29:34;;;;;;;5.13;2.33;;;23.30;99.90;;;;;;5004720;28;20672;-63
2022/07/30 11:32:31;;;;;;;4.63;2.50;;;23.30;99.90;;;;;;5006606;28;20201;-62
2022/07/30 11:35:15;;;;;;;4.45;2.50;;;23.30;69.40;;;;;;5010882;28;20217;-61
2022/07/30 11:38:03;;;;;;;2.85;1.88;;;23.30;1.00;;;;;;5009508;28;20225;-61
2022/07/30 11:40:32;;;;;;;6.03;2.30;;;23.30;1.00;;;;;;5020736;28;20217;-62
2022/07/30 11:43:21;;;;;;;7.68;2.08;;;23.40;1.00;;;;;;5008715;28;20320;-62
2022/07/30 11:45:51;;;;;;;5.93;2.40;;;23.20;1.00;;;;;;5022068;28;20765;-62
2022/07/30 11:48:20;;;;;;;6.15;2.35;;;23.60;1.00;;;;;;4989842;28;20225;-62
2022/07/30 11:50:48;;;;;;;2.60;1.90;;;23.70;1.00;;;;;;5010732;28;20197;-61
2022/07/30 11:53:17;;;;;;;4.03;1.92;;;23.40;1.00;;;;;;5007708;28;20211;-63
2022/07/30 11:55:47;;;;;;;3.10;2.00;;;23.40;1.00;;;;;;5023315;28;20215;-63
2022/07/30 11:58:25;;;;;;;4.10;2.05;;;23.40;1.00;;;;;;5009687;28;20212;-62
2022/07/30 12:00:54;;;;;;;5.90;2.17;;;23.50;1.00;;;;;;5024437;28;20205;-62
2022/07/30 12:03:25;;;;;;;3.08;2.20;;;23.50;1.00;;;;;;5024862;28;20308;-62
2022/07/30 12:05:52;;;;;;;4.20;2.28;;;23.40;1.00;;;;;;4996575;28;20206;-62
2022/07/30 12:08:20;;;;;;;3.08;2.28;;;23.70;1.00;;;;;;5013968;28;20797;-63
2022/07/30 12:10:56;;;;;;;4.88;2.17;;;23.70;1.00;;;;;;5014152;28;20202;-62
2022/07/30 12:13:24;;;;;;;5.28;2.25;;;;;;;;;;5027010;28;20198;-62
2022/07/30 12:15:50;;;;;;;3.75;2.20;;;23.80;99.90;;;;;;5016740;28;20292;-62
2022/07/30 12:18:26;;;;;;;2.75;2.20;;;23.70;99.90;;;;;;5026796;28;20230;-62
2022/07/30 12:20:55;;;;;;;2.65;1.92;;;23.40;99.90;;;;;;4999417;28;20467;-62
2022/07/30 12:23:22;;;;;;;7.43;2.80;;;24.50;99.90;;;;;;5006164;28;20710;-62
2022/07/30 12:25:49;;;;;;;5.90;2.60;;;23.20;1.00;;;;;;5018405;28;21600;-62
2022/07/30 12:28:21;;;;;;;4.07;2.30;;;23.40;1.00;;;;;;5012465;28;20232;-61
2022/07/30 12:30:48;;;;;;;5.63;2.25;;;23.50;99.90;;;;;;5011268;28;20228;-61
2022/07/30 12:33:15;;;;;;;3.47;2.20;;;23.50;99.90;;;;;;5026349;28;20221;-63
2022/07/30 12:35:45;;;;;;;3.28;2.25;;;23.30;1.00;;;;;;5022309;28;20324;-63
2022/07/30 12:38:13;;;;;;;4.78;2.33;;;23.40;1.00;;;;;;5000437;28;20318;-63
2022/07/30 12:40:54;;;;;;;2.28;1.90;;;23.90;1.00;;;;;;5007818;28;20210;-63
2022/07/30 12:43:42;;;;;;;4.95;2.40;;;23.20;1.00;;;;;;5021275;28;20229;-62
2022/07/30 12:46:08;;;;;;;4.35;2.08;;;23.10;1.00;;;;;;4993654;28;20260;-62
2022/07/30 12:48:35;;;;;;;6.60;2.17;;;23.10;1.00;;;;;;5013771;28;20212;-63
2022/07/30 12:51:22;;;;;;;3.08;2.28;;;23.00;1.00;;;;;;5004728;28;20228;-62
2022/07/30 12:53:50;;;;;;;3.17;1.95;;;23.50;1.00;;;;;;5032540;22;20263;-62
2022/07/30 12:56:19;;;;;;;3.53;2.28;;;22.90;1.00;;;;;;5044399;28;20722;-63
2022/07/30 12:58:45;;;;;;;5.15;2.20;;;22.90;1.00;;;;;;5064162;28;20955;-63
2022/07/30 13:01:13;;;;;;;4.63;2.15;;;22.80;1.00;;;;;;5053611;28;20216;-63